Terminal Aerodrome Forecast
Issued by NWS

Home | Current Version | Previous Version | Text Only | Print | Product List | Glossary On
Versions: 1 2 3 4 5 6 7 8 9 10 11 12
000
FTUS44 KTSA 021725
TAFBVO
TAF
KBVO 021725Z 0218/0318 VRB03KT P6SM FEW025
     FM022000 02010KT P6SM SCT060 BKN120
     FM030200 VRB04KT P6SM BKN050
     FM031200 VRB03KT P6SM BKN025=

USA.gov is the U.S. government's official web portal to all federal, state and local government web resources and services.